Aeroporto :
LOGIN :

Iscrizione | Disclaimer

   EN    FR    IT 

 










Sommario :    VFR   VFR Marginale   IFR   IFR Intensivo   IFR Molto Intensivo
Visibilità : 
Base nubi : 
>= 8 km
>= 3000ft
5 / 8 km
1000 / 3000 ft
1500m / 5 km
500 / 1000 ft
800 / 1500m
200 / 500 ft
< 800m
< 200 ft
Simboli :   Temporali  Nebbia  Neve Forte  Precipitazioni Forti  Vento > 20 kt
SIGMETs :   Varie  Temporali  Ghiacco  Turbolenza  Onda orograficha  Ceneri Vulcaniche






- Altitudine del aeroporto : 14 ft
- Codice IATA : LXS


LGLM - Ifaistos

ULTIMO METAR :
  • 212150Z 03006KT CAVOK 18/15 Q1020

METARs OBSOLETI :
  • 212050Z 31004KT CAVOK 18/15 Q1020
  • 212020Z 02005KT CAVOK 19/16 Q1020
  • 211950Z 02005KT CAVOK 19/16 Q1020
  • 211920Z 02007KT CAVOK 19/16 Q1020

TAF TAF LGLM
Valido dal 21 a 21 ore il 22 a 06 ore UTC


212000Z 2121/2206 05015KT 9999 FEW020
TEMPO 2203/2206 05015G25KT



MetMap, La meteo Aeronautica in un colpo d'occhio ! - Copyright ORBIFLY Dicembre 2007 - Disclaimer

ORBIFLY MET'MAP TEAM :

Programmazione e sviluppo : Alexandra Zaïnal
Concezione e sviluppo : Baudouin d'Aumeries
Co-Programmazione e sviluppo : Marc-Olivier Méhu
Supporto tecnico e logistico : Manuel Goepfert
Aiuto per la traduzione : Arnaldo La Scala

Contatto : metmap@orbifly.com




FONTI E CREDITI :

   NOAA